sensor_id;sensor_type;location;lat;lon;timestamp;temperature;humidity
55634;DHT22;41504;53.162;6.788;2023-03-21T00:01:00;9.20;97.30
55634;DHT22;41504;53.162;6.788;2023-03-21T00:03:30;9.20;97.40
55634;DHT22;41504;53.162;6.788;2023-03-21T00:05:56;9.20;97.40
55634;DHT22;41504;53.162;6.788;2023-03-21T00:08:24;9.20;97.40
55634;DHT22;41504;53.162;6.788;2023-03-21T00:11:01;9.20;97.50
55634;DHT22;41504;53.162;6.788;2023-03-21T00:13:28;9.20;97.40
55634;DHT22;41504;53.162;6.788;2023-03-21T00:16:18;9.20;97.40
55634;DHT22;41504;53.162;6.788;2023-03-21T00:18:48;9.20;97.50
55634;DHT22;41504;53.162;6.788;2023-03-21T00:21:22;9.20;97.40
55634;DHT22;41504;53.162;6.788;2023-03-21T00:23:53;9.20;97.50
55634;DHT22;41504;53.162;6.788;2023-03-21T00:26:19;9.20;97.50
55634;DHT22;41504;53.162;6.788;2023-03-21T00:28:47;9.30;97.50
55634;DHT22;41504;53.162;6.788;2023-03-21T00:31:13;9.20;97.50
55634;DHT22;41504;53.162;6.788;2023-03-21T00:33:39;9.30;97.50
55634;DHT22;41504;53.162;6.788;2023-03-21T00:36:06;9.30;97.50
55634;DHT22;41504;53.162;6.788;2023-03-21T00:38:34;9.30;97.60
55634;DHT22;41504;53.162;6.788;2023-03-21T00:41:03;9.30;97.60
55634;DHT22;41504;53.162;6.788;2023-03-21T00:43:29;9.30;97.50
55634;DHT22;41504;53.162;6.788;2023-03-21T00:45:56;9.30;97.60
55634;DHT22;41504;53.162;6.788;2023-03-21T00:48:26;9.30;97.60
55634;DHT22;41504;53.162;6.788;2023-03-21T00:50:53;9.30;97.60
55634;DHT22;41504;53.162;6.788;2023-03-21T00:53:20;9.20;97.60
55634;DHT22;41504;53.162;6.788;2023-03-21T00:55:46;9.30;97.60
55634;DHT22;41504;53.162;6.788;2023-03-21T00:58:12;9.30;97.70
55634;DHT22;41504;53.162;6.788;2023-03-21T01:00:38;9.30;97.70
55634;DHT22;41504;53.162;6.788;2023-03-21T01:03:06;9.30;97.70
55634;DHT22;41504;53.162;6.788;2023-03-21T01:05:37;9.30;97.80
55634;DHT22;41504;53.162;6.788;2023-03-21T01:08:21;9.30;97.60
55634;DHT22;41504;53.162;6.788;2023-03-21T01:10:49;9.30;97.60
55634;DHT22;41504;53.162;6.788;2023-03-21T01:13:17;9.30;97.60
55634;DHT22;41504;53.162;6.788;2023-03-21T01:15:49;9.30;97.70
55634;DHT22;41504;53.162;6.788;2023-03-21T01:18:17;9.30;97.70
55634;DHT22;41504;53.162;6.788;2023-03-21T01:20:46;9.30;97.70
55634;DHT22;41504;53.162;6.788;2023-03-21T01:23:14;9.30;97.70
55634;DHT22;41504;53.162;6.788;2023-03-21T01:25:40;9.30;97.70
55634;DHT22;41504;53.162;6.788;2023-03-21T01:28:07;9.30;97.70
55634;DHT22;41504;53.162;6.788;2023-03-21T01:30:33;9.30;97.80
55634;DHT22;41504;53.162;6.788;2023-03-21T01:32:58;9.30;97.80
55634;DHT22;41504;53.162;6.788;2023-03-21T01:35:24;9.30;97.80
55634;DHT22;41504;53.162;6.788;2023-03-21T01:37:50;9.30;97.80
55634;DHT22;41504;53.162;6.788;2023-03-21T01:40:26;9.30;97.90
55634;DHT22;41504;53.162;6.788;2023-03-21T01:42:52;9.30;97.90
55634;DHT22;41504;53.162;6.788;2023-03-21T01:48:25;9.30;97.80
55634;DHT22;41504;53.162;6.788;2023-03-21T01:50:51;9.30;97.90
55634;DHT22;41504;53.162;6.788;2023-03-21T01:53:19;9.30;97.90
55634;DHT22;41504;53.162;6.788;2023-03-21T01:55:47;9.30;97.90
55634;DHT22;41504;53.162;6.788;2023-03-21T01:58:15;9.30;98.00
55634;DHT22;41504;53.162;6.788;2023-03-21T02:00:44;9.30;97.90
55634;DHT22;41504;53.162;6.788;2023-03-21T02:03:10;9.30;98.00
55634;DHT22;41504;53.162;6.788;2023-03-21T02:05:59;9.30;98.00
55634;DHT22;41504;53.162;6.788;2023-03-21T02:08:27;9.30;98.00
55634;DHT22;41504;53.162;6.788;2023-03-21T02:10:54;9.30;98.00
55634;DHT22;41504;53.162;6.788;2023-03-21T02:13:20;9.30;98.00
55634;DHT22;41504;53.162;6.788;2023-03-21T02:18:46;9.30;98.00
55634;DHT22;41504;53.162;6.788;2023-03-21T02:37:48;9.30;97.90
55634;DHT22;41504;53.162;6.788;2023-03-21T02:40:42;9.40;98.00
55634;DHT22;41504;53.162;6.788;2023-03-21T02:43:11;9.40;98.00
55634;DHT22;41504;53.162;6.788;2023-03-21T02:45:48;9.40;98.00
55634;DHT22;41504;53.162;6.788;2023-03-21T02:48:25;9.30;98.00
55634;DHT22;41504;53.162;6.788;2023-03-21T02:50:57;9.40;98.00
55634;DHT22;41504;53.162;6.788;2023-03-21T02:53:29;9.40;98.00
55634;DHT22;41504;53.162;6.788;2023-03-21T02:55:59;9.40;98.00
55634;DHT22;41504;53.162;6.788;2023-03-21T02:58:27;9.40;97.90
55634;DHT22;41504;53.162;6.788;2023-03-21T03:00:54;9.40;98.00
55634;DHT22;41504;53.162;6.788;2023-03-21T03:03:21;9.40;98.00
55634;DHT22;41504;53.162;6.788;2023-03-21T03:05:51;9.40;98.00
55634;DHT22;41504;53.162;6.788;2023-03-21T03:20:27;9.40;98.00
55634;DHT22;41504;53.162;6.788;2023-03-21T03:25:46;9.40;98.10
55634;DHT22;41504;53.162;6.788;2023-03-21T03:28:20;9.50;98.10
55634;DHT22;41504;53.162;6.788;2023-03-21T03:30:48;9.40;98.00
55634;DHT22;41504;53.162;6.788;2023-03-21T03:33:15;9.40;98.00
55634;DHT22;41504;53.162;6.788;2023-03-21T03:35:43;9.40;98.00
55634;DHT22;41504;53.162;6.788;2023-03-21T03:38:11;9.40;98.00
55634;DHT22;41504;53.162;6.788;2023-03-21T03:40:41;9.40;98.00
55634;DHT22;41504;53.162;6.788;2023-03-21T03:43:17;9.40;98.00
55634;DHT22;41504;53.162;6.788;2023-03-21T03:45:52;9.40;98.10
55634;DHT22;41504;53.162;6.788;2023-03-21T03:51:05;9.40;98.10
55634;DHT22;41504;53.162;6.788;2023-03-21T03:53:39;9.40;98.10
55634;DHT22;41504;53.162;6.788;2023-03-21T03:56:07;9.50;98.10
55634;DHT22;41504;53.162;6.788;2023-03-21T03:58:36;9.40;98.00
55634;DHT22;41504;53.162;6.788;2023-03-21T04:01:04;9.40;98.00
55634;DHT22;41504;53.162;6.788;2023-03-21T04:03:43;9.40;98.00
55634;DHT22;41504;53.162;6.788;2023-03-21T04:06:09;9.40;98.00
55634;DHT22;41504;53.162;6.788;2023-03-21T04:08:38;9.40;98.00
55634;DHT22;41504;53.162;6.788;2023-03-21T04:11:07;9.40;97.90
55634;DHT22;41504;53.162;6.788;2023-03-21T04:13:33;9.40;97.90
55634;DHT22;41504;53.162;6.788;2023-03-21T04:15:59;9.40;97.90
55634;DHT22;41504;53.162;6.788;2023-03-21T04:18:25;9.50;97.90
55634;DHT22;41504;53.162;6.788;2023-03-21T04:20:52;9.40;97.90
55634;DHT22;41504;53.162;6.788;2023-03-21T04:23:18;9.50;97.90
55634;DHT22;41504;53.162;6.788;2023-03-21T04:25:44;9.40;97.90
55634;DHT22;41504;53.162;6.788;2023-03-21T04:28:10;9.40;97.90
55634;DHT22;41504;53.162;6.788;2023-03-21T04:30:36;9.40;97.90
55634;DHT22;41504;53.162;6.788;2023-03-21T04:33:02;9.40;98.00
55634;DHT22;41504;53.162;6.788;2023-03-21T04:37:56;9.40;98.00
55634;DHT22;41504;53.162;6.788;2023-03-21T04:40:21;9.40;98.00
55634;DHT22;41504;53.162;6.788;2023-03-21T04:42:49;9.40;98.00
55634;DHT22;41504;53.162;6.788;2023-03-21T04:45:16;9.40;98.00
55634;DHT22;41504;53.162;6.788;2023-03-21T04:47:42;9.40;98.00
55634;DHT22;41504;53.162;6.788;2023-03-21T04:50:09;9.40;98.10
55634;DHT22;41504;53.162;6.788;2023-03-21T04:52:35;9.40;98.10
55634;DHT22;41504;53.162;6.788;2023-03-21T04:55:01;9.40;98.10
55634;DHT22;41504;53.162;6.788;2023-03-21T04:57:27;9.50;98.10
55634;DHT22;41504;53.162;6.788;2023-03-21T04:59:53;9.40;98.10
55634;DHT22;41504;53.162;6.788;2023-03-21T05:02:18;9.40;98.10
55634;DHT22;41504;53.162;6.788;2023-03-21T05:04:44;9.30;98.10
55634;DHT22;41504;53.162;6.788;2023-03-21T05:07:10;9.40;98.10
55634;DHT22;41504;53.162;6.788;2023-03-21T05:09:36;9.40;98.10
55634;DHT22;41504;53.162;6.788;2023-03-21T05:12:02;9.40;98.20
55634;DHT22;41504;53.162;6.788;2023-03-21T05:14:28;9.40;98.20
55634;DHT22;41504;53.162;6.788;2023-03-21T05:16:54;9.40;98.20
55634;DHT22;41504;53.162;6.788;2023-03-21T05:19:33;9.40;98.20
55634;DHT22;41504;53.162;6.788;2023-03-21T05:22:02;9.40;98.20
55634;DHT22;41504;53.162;6.788;2023-03-21T05:24:29;9.40;98.30
55634;DHT22;41504;53.162;6.788;2023-03-21T05:26:56;9.40;98.20
55634;DHT22;41504;53.162;6.788;2023-03-21T05:29:27;9.40;98.20
55634;DHT22;41504;53.162;6.788;2023-03-21T05:31:53;9.40;98.30
55634;DHT22;41504;53.162;6.788;2023-03-21T05:34:19;9.40;98.30
55634;DHT22;41504;53.162;6.788;2023-03-21T05:36:45;9.40;98.30
55634;DHT22;41504;53.162;6.788;2023-03-21T05:39:10;9.40;98.30
55634;DHT22;41504;53.162;6.788;2023-03-21T05:41:36;9.40;98.30
55634;DHT22;41504;53.162;6.788;2023-03-21T05:44:02;9.40;98.30
55634;DHT22;41504;53.162;6.788;2023-03-21T05:46:27;9.40;98.30
55634;DHT22;41504;53.162;6.788;2023-03-21T05:48:53;9.40;98.30
55634;DHT22;41504;53.162;6.788;2023-03-21T05:51:19;9.40;98.30
55634;DHT22;41504;53.162;6.788;2023-03-21T05:53:45;9.40;98.30
55634;DHT22;41504;53.162;6.788;2023-03-21T05:56:11;9.40;98.30
55634;DHT22;41504;53.162;6.788;2023-03-21T05:58:36;9.40;98.30
55634;DHT22;41504;53.162;6.788;2023-03-21T06:01:02;9.30;98.30
55634;DHT22;41504;53.162;6.788;2023-03-21T06:03:28;9.30;98.30
55634;DHT22;41504;53.162;6.788;2023-03-21T06:05:53;9.30;98.30
55634;DHT22;41504;53.162;6.788;2023-03-21T06:08:19;9.40;98.30
55634;DHT22;41504;53.162;6.788;2023-03-21T06:10:45;9.40;98.30
55634;DHT22;41504;53.162;6.788;2023-03-21T06:13:10;9.40;98.30
55634;DHT22;41504;53.162;6.788;2023-03-21T06:15:36;9.40;98.30
55634;DHT22;41504;53.162;6.788;2023-03-21T06:18:03;9.40;98.30
55634;DHT22;41504;53.162;6.788;2023-03-21T06:20:29;9.40;98.30
55634;DHT22;41504;53.162;6.788;2023-03-21T06:22:55;9.40;98.40
55634;DHT22;41504;53.162;6.788;2023-03-21T06:25:20;9.40;98.40
55634;DHT22;41504;53.162;6.788;2023-03-21T06:27:46;9.40;98.40
55634;DHT22;41504;53.162;6.788;2023-03-21T06:30:12;9.40;98.40
55634;DHT22;41504;53.162;6.788;2023-03-21T06:32:38;9.40;98.40
55634;DHT22;41504;53.162;6.788;2023-03-21T06:35:04;9.40;98.40
55634;DHT22;41504;53.162;6.788;2023-03-21T06:37:31;9.40;98.40
55634;DHT22;41504;53.162;6.788;2023-03-21T06:39:56;9.40;98.40
55634;DHT22;41504;53.162;6.788;2023-03-21T06:42:22;9.40;98.40
55634;DHT22;41504;53.162;6.788;2023-03-21T06:44:48;9.40;98.40
55634;DHT22;41504;53.162;6.788;2023-03-21T06:47:14;9.40;98.40
55634;DHT22;41504;53.162;6.788;2023-03-21T06:49:40;9.50;98.40
55634;DHT22;41504;53.162;6.788;2023-03-21T06:52:08;9.50;98.40
55634;DHT22;41504;53.162;6.788;2023-03-21T06:54:34;9.40;98.40
55634;DHT22;41504;53.162;6.788;2023-03-21T06:57:00;9.50;98.50
55634;DHT22;41504;53.162;6.788;2023-03-21T06:59:26;9.50;98.40
55634;DHT22;41504;53.162;6.788;2023-03-21T07:01:52;9.50;98.40
55634;DHT22;41504;53.162;6.788;2023-03-21T07:04:18;9.50;98.40
55634;DHT22;41504;53.162;6.788;2023-03-21T07:06:44;9.60;98.40
55634;DHT22;41504;53.162;6.788;2023-03-21T07:09:09;9.50;98.40
55634;DHT22;41504;53.162;6.788;2023-03-21T07:11:36;9.50;98.50
55634;DHT22;41504;53.162;6.788;2023-03-21T07:14:02;9.50;98.40
55634;DHT22;41504;53.162;6.788;2023-03-21T07:16:27;9.50;98.40
55634;DHT22;41504;53.162;6.788;2023-03-21T07:18:54;9.60;98.40
55634;DHT22;41504;53.162;6.788;2023-03-21T07:21:23;9.60;98.40
55634;DHT22;41504;53.162;6.788;2023-03-21T07:23:49;9.50;98.40
55634;DHT22;41504;53.162;6.788;2023-03-21T07:26:15;9.60;98.40
55634;DHT22;41504;53.162;6.788;2023-03-21T07:28:43;9.50;98.40
55634;DHT22;41504;53.162;6.788;2023-03-21T07:31:13;9.60;98.50
55634;DHT22;41504;53.162;6.788;2023-03-21T07:33:39;9.60;98.50
55634;DHT22;41504;53.162;6.788;2023-03-21T07:36:09;9.60;98.50
55634;DHT22;41504;53.162;6.788;2023-03-21T07:38:37;9.60;98.40
55634;DHT22;41504;53.162;6.788;2023-03-21T07:41:02;9.60;98.40
55634;DHT22;41504;53.162;6.788;2023-03-21T07:43:28;9.60;98.50
55634;DHT22;41504;53.162;6.788;2023-03-21T07:45:57;9.70;98.50
55634;DHT22;41504;53.162;6.788;2023-03-21T07:48:23;9.60;98.40
55634;DHT22;41504;53.162;6.788;2023-03-21T07:50:49;9.70;98.40
55634;DHT22;41504;53.162;6.788;2023-03-21T07:53:15;9.70;98.40
55634;DHT22;41504;53.162;6.788;2023-03-21T07:55:41;9.70;98.30
55634;DHT22;41504;53.162;6.788;2023-03-21T07:58:06;9.70;98.30
55634;DHT22;41504;53.162;6.788;2023-03-21T08:00:32;9.70;98.40
55634;DHT22;41504;53.162;6.788;2023-03-21T08:02:58;9.80;98.40
55634;DHT22;41504;53.162;6.788;2023-03-21T08:05:32;9.80;98.40
55634;DHT22;41504;53.162;6.788;2023-03-21T08:07:59;9.80;98.40
55634;DHT22;41504;53.162;6.788;2023-03-21T08:10:24;9.80;98.30
55634;DHT22;41504;53.162;6.788;2023-03-21T08:12:50;9.80;98.30
55634;DHT22;41504;53.162;6.788;2023-03-21T08:15:16;9.80;98.30
55634;DHT22;41504;53.162;6.788;2023-03-21T08:17:42;9.80;98.30
55634;DHT22;41504;53.162;6.788;2023-03-21T08:20:18;9.80;98.40
55634;DHT22;41504;53.162;6.788;2023-03-21T08:22:47;9.90;98.30
55634;DHT22;41504;53.162;6.788;2023-03-21T08:25:16;9.80;98.30
55634;DHT22;41504;53.162;6.788;2023-03-21T08:27:44;9.90;98.40
55634;DHT22;41504;53.162;6.788;2023-03-21T08:30:12;9.80;98.30
55634;DHT22;41504;53.162;6.788;2023-03-21T08:32:39;9.90;98.30
55634;DHT22;41504;53.162;6.788;2023-03-21T08:35:07;9.80;98.40
55634;DHT22;41504;53.162;6.788;2023-03-21T08:37:36;9.90;98.40
55634;DHT22;41504;53.162;6.788;2023-03-21T08:40:03;9.90;98.30
55634;DHT22;41504;53.162;6.788;2023-03-21T08:42:32;9.90;98.20
55634;DHT22;41504;53.162;6.788;2023-03-21T08:44:58;9.90;98.30
55634;DHT22;41504;53.162;6.788;2023-03-21T08:47:24;9.80;98.30
55634;DHT22;41504;53.162;6.788;2023-03-21T08:49:49;9.90;98.30
55634;DHT22;41504;53.162;6.788;2023-03-21T08:52:15;9.90;98.30
55634;DHT22;41504;53.162;6.788;2023-03-21T08:54:41;9.90;98.20
55634;DHT22;41504;53.162;6.788;2023-03-21T08:57:07;9.90;98.20
55634;DHT22;41504;53.162;6.788;2023-03-21T08:59:33;9.90;98.00
55634;DHT22;41504;53.162;6.788;2023-03-21T09:01:59;9.90;98.10
55634;DHT22;41504;53.162;6.788;2023-03-21T09:04:25;9.90;98.10
55634;DHT22;41504;53.162;6.788;2023-03-21T09:06:51;9.80;98.10
55634;DHT22;41504;53.162;6.788;2023-03-21T09:09:17;9.90;98.10
55634;DHT22;41504;53.162;6.788;2023-03-21T09:11:43;9.90;98.10
55634;DHT22;41504;53.162;6.788;2023-03-21T09:14:09;9.90;98.10
55634;DHT22;41504;53.162;6.788;2023-03-21T09:16:36;9.90;98.10
55634;DHT22;41504;53.162;6.788;2023-03-21T09:19:01;9.80;98.10
55634;DHT22;41504;53.162;6.788;2023-03-21T09:21:29;9.90;98.20
55634;DHT22;41504;53.162;6.788;2023-03-21T09:23:56;9.90;98.10
55634;DHT22;41504;53.162;6.788;2023-03-21T09:26:24;9.90;98.00
55634;DHT22;41504;53.162;6.788;2023-03-21T09:28:52;9.90;98.00
55634;DHT22;41504;53.162;6.788;2023-03-21T09:31:18;9.90;98.00
55634;DHT22;41504;53.162;6.788;2023-03-21T09:33:54;9.90;98.00
55634;DHT22;41504;53.162;6.788;2023-03-21T09:36:20;10.00;98.00
55634;DHT22;41504;53.162;6.788;2023-03-21T09:38:49;10.00;97.80
55634;DHT22;41504;53.162;6.788;2023-03-21T09:44:22;9.90;97.80
55634;DHT22;41504;53.162;6.788;2023-03-21T09:47:43;10.00;97.90
55634;DHT22;41504;53.162;6.788;2023-03-21T09:50:23;9.90;97.80
55634;DHT22;41504;53.162;6.788;2023-03-21T09:52:56;9.90;97.90
55634;DHT22;41504;53.162;6.788;2023-03-21T09:55:34;10.00;97.90
55634;DHT22;41504;53.162;6.788;2023-03-21T10:00:52;10.00;97.90
55634;DHT22;41504;53.162;6.788;2023-03-21T10:03:30;10.00;97.90
55634;DHT22;41504;53.162;6.788;2023-03-21T10:06:00;10.00;97.90
55634;DHT22;41504;53.162;6.788;2023-03-21T10:08:33;10.00;97.80
55634;DHT22;41504;53.162;6.788;2023-03-21T10:11:26;10.00;97.80
55634;DHT22;41504;53.162;6.788;2023-03-21T10:14:01;10.00;97.60
55634;DHT22;41504;53.162;6.788;2023-03-21T10:16:36;10.00;97.60
55634;DHT22;41504;53.162;6.788;2023-03-21T10:19:17;10.00;97.60
55634;DHT22;41504;53.162;6.788;2023-03-21T10:21:46;9.90;97.60
55634;DHT22;41504;53.162;6.788;2023-03-21T10:24:19;9.90;97.60
55634;DHT22;41504;53.162;6.788;2023-03-21T10:26:47;9.90;97.60
55634;DHT22;41504;53.162;6.788;2023-03-21T10:29:15;9.90;97.70
55634;DHT22;41504;53.162;6.788;2023-03-21T10:31:44;9.90;97.40
55634;DHT22;41504;53.162;6.788;2023-03-21T10:34:23;9.90;97.40
55634;DHT22;41504;53.162;6.788;2023-03-21T10:36:52;9.80;97.50
55634;DHT22;41504;53.162;6.788;2023-03-21T10:39:42;9.80;97.50
55634;DHT22;41504;53.162;6.788;2023-03-21T10:42:18;9.90;97.50
55634;DHT22;41504;53.162;6.788;2023-03-21T10:44:47;9.90;97.60
55634;DHT22;41504;53.162;6.788;2023-03-21T10:47:25;9.80;97.60
55634;DHT22;41504;53.162;6.788;2023-03-21T10:49:51;9.80;97.60
55634;DHT22;41504;53.162;6.788;2023-03-21T10:52:19;9.80;97.70
55634;DHT22;41504;53.162;6.788;2023-03-21T10:54:45;9.80;97.60
55634;DHT22;41504;53.162;6.788;2023-03-21T10:57:17;9.90;97.70
55634;DHT22;41504;53.162;6.788;2023-03-21T10:59:59;9.90;97.80
55634;DHT22;41504;53.162;6.788;2023-03-21T11:02:34;9.90;97.70
55634;DHT22;41504;53.162;6.788;2023-03-21T11:05:18;9.90;97.70
55634;DHT22;41504;53.162;6.788;2023-03-21T11:07:44;10.00;97.80
55634;DHT22;41504;53.162;6.788;2023-03-21T11:10:30;10.00;97.60
55634;DHT22;41504;53.162;6.788;2023-03-21T11:12:58;10.00;97.70
55634;DHT22;41504;53.162;6.788;2023-03-21T11:15:51;10.00;97.70
55634;DHT22;41504;53.162;6.788;2023-03-21T11:18:22;10.10;97.60
55634;DHT22;41504;53.162;6.788;2023-03-21T11:21:03;10.20;97.60
55634;DHT22;41504;53.162;6.788;2023-03-21T11:23:33;10.20;97.50
55634;DHT22;41504;53.162;6.788;2023-03-21T11:26:01;10.30;97.60
55634;DHT22;41504;53.162;6.788;2023-03-21T11:28:37;10.30;97.50
55634;DHT22;41504;53.162;6.788;2023-03-21T11:31:05;10.40;97.50
55634;DHT22;41504;53.162;6.788;2023-03-21T11:33:42;10.40;97.30
55634;DHT22;41504;53.162;6.788;2023-03-21T11:38:57;10.50;97.20
55634;DHT22;41504;53.162;6.788;2023-03-21T11:41:28;10.60;97.30
55634;DHT22;41504;53.162;6.788;2023-03-21T11:43:56;10.60;97.20
55634;DHT22;41504;53.162;6.788;2023-03-21T11:46:24;10.70;97.10
55634;DHT22;41504;53.162;6.788;2023-03-21T11:48:51;10.80;97.00
55634;DHT22;41504;53.162;6.788;2023-03-21T11:56:53;11.00;96.60
55634;DHT22;41504;53.162;6.788;2023-03-21T12:21:04;11.30;95.90
55634;DHT22;41504;53.162;6.788;2023-03-21T12:31:30;11.40;95.50
55634;DHT22;41504;53.162;6.788;2023-03-21T12:34:23;11.40;95.60
55634;DHT22;41504;53.162;6.788;2023-03-21T12:39:38;11.40;95.50
55634;DHT22;41504;53.162;6.788;2023-03-21T12:42:48;11.40;95.10
55634;DHT22;41504;53.162;6.788;2023-03-21T12:45:20;11.40;95.10
55634;DHT22;41504;53.162;6.788;2023-03-21T12:47:52;11.30;95.20
55634;DHT22;41504;53.162;6.788;2023-03-21T12:50:22;11.30;95.00
55634;DHT22;41504;53.162;6.788;2023-03-21T12:52:53;11.20;95.10
55634;DHT22;41504;53.162;6.788;2023-03-21T12:55:32;11.20;95.10
55634;DHT22;41504;53.162;6.788;2023-03-21T13:00:42;11.10;95.30
55634;DHT22;41504;53.162;6.788;2023-03-21T13:03:17;11.10;95.30
55634;DHT22;41504;53.162;6.788;2023-03-21T13:08:40;11.10;95.10
55634;DHT22;41504;53.162;6.788;2023-03-21T13:11:13;11.10;95.20
55634;DHT22;41504;53.162;6.788;2023-03-21T13:13:57;11.10;95.40
55634;DHT22;41504;53.162;6.788;2023-03-21T13:16:35;11.10;95.30
55634;DHT22;41504;53.162;6.788;2023-03-21T13:19:18;11.20;95.30
55634;DHT22;41504;53.162;6.788;2023-03-21T13:24:41;11.30;95.00
55634;DHT22;41504;53.162;6.788;2023-03-21T13:27:30;11.30;95.10
55634;DHT22;41504;53.162;6.788;2023-03-21T13:32:32;11.40;95.00
55634;DHT22;41504;53.162;6.788;2023-03-21T13:37:43;11.50;94.70
55634;DHT22;41504;53.162;6.788;2023-03-21T13:40:25;11.50;94.70
55634;DHT22;41504;53.162;6.788;2023-03-21T13:42:57;11.60;94.40
55634;DHT22;41504;53.162;6.788;2023-03-21T13:45:45;11.60;94.40
55634;DHT22;41504;53.162;6.788;2023-03-21T13:48:32;11.70;94.30
55634;DHT22;41504;53.162;6.788;2023-03-21T13:51:05;11.80;94.20
55634;DHT22;41504;53.162;6.788;2023-03-21T13:56:20;11.80;93.80
55634;DHT22;41504;53.162;6.788;2023-03-21T14:01:26;11.90;94.00
55634;DHT22;41504;53.162;6.788;2023-03-21T14:04:14;11.90;93.90
55634;DHT22;41504;53.162;6.788;2023-03-21T14:09:18;12.00;93.40
55634;DHT22;41504;53.162;6.788;2023-03-21T14:11:44;11.90;93.30
55634;DHT22;41504;53.162;6.788;2023-03-21T14:14:13;12.00;93.50
55634;DHT22;41504;53.162;6.788;2023-03-21T14:16:40;12.00;93.20
55634;DHT22;41504;53.162;6.788;2023-03-21T14:19:06;12.00;93.40
55634;DHT22;41504;53.162;6.788;2023-03-21T14:21:33;12.00;93.20
55634;DHT22;41504;53.162;6.788;2023-03-21T14:24:05;12.00;93.00
55634;DHT22;41504;53.162;6.788;2023-03-21T14:26:37;12.10;93.00
55634;DHT22;41504;53.162;6.788;2023-03-21T14:29:06;12.10;92.70
55634;DHT22;41504;53.162;6.788;2023-03-21T14:31:34;12.20;92.50
55634;DHT22;41504;53.162;6.788;2023-03-21T14:34:01;12.20;92.40
55634;DHT22;41504;53.162;6.788;2023-03-21T14:36:30;12.30;92.40
55634;DHT22;41504;53.162;6.788;2023-03-21T14:39:30;12.40;91.80
55634;DHT22;41504;53.162;6.788;2023-03-21T14:42:06;12.40;91.90
55634;DHT22;41504;53.162;6.788;2023-03-21T14:47:15;12.80;91.90
55634;DHT22;41504;53.162;6.788;2023-03-21T14:49:41;12.90;91.60
55634;DHT22;41504;53.162;6.788;2023-03-21T14:52:10;13.10;91.00
55634;DHT22;41504;53.162;6.788;2023-03-21T14:54:44;13.20;91.00
55634;DHT22;41504;53.162;6.788;2023-03-21T14:57:13;13.30;90.60
55634;DHT22;41504;53.162;6.788;2023-03-21T14:59:40;13.30;90.40
55634;DHT22;41504;53.162;6.788;2023-03-21T15:02:36;13.20;90.40
55634;DHT22;41504;53.162;6.788;2023-03-21T15:05:10;13.10;90.30
55634;DHT22;41504;53.162;6.788;2023-03-21T15:07:40;13.00;90.50
55634;DHT22;41504;53.162;6.788;2023-03-21T15:10:13;12.90;90.80
55634;DHT22;41504;53.162;6.788;2023-03-21T15:12:51;12.80;90.40
55634;DHT22;41504;53.162;6.788;2023-03-21T15:15:18;12.70;90.50
55634;DHT22;41504;53.162;6.788;2023-03-21T15:17:44;12.70;90.30
55634;DHT22;41504;53.162;6.788;2023-03-21T15:20:15;12.70;90.50
55634;DHT22;41504;53.162;6.788;2023-03-21T15:22:53;12.70;90.10
55634;DHT22;41504;53.162;6.788;2023-03-21T15:25:25;12.70;90.30
55634;DHT22;41504;53.162;6.788;2023-03-21T15:27:53;12.70;90.50
55634;DHT22;41504;53.162;6.788;2023-03-21T15:30:28;12.70;90.50
55634;DHT22;41504;53.162;6.788;2023-03-21T15:32:55;12.70;90.60
55634;DHT22;41504;53.162;6.788;2023-03-21T15:35:43;12.60;90.60
55634;DHT22;41504;53.162;6.788;2023-03-21T15:40:46;12.60;90.10
55634;DHT22;41504;53.162;6.788;2023-03-21T15:43:15;12.60;90.20
55634;DHT22;41504;53.162;6.788;2023-03-21T15:45:50;12.50;90.20
55634;DHT22;41504;53.162;6.788;2023-03-21T15:48:21;12.50;90.40
55634;DHT22;41504;53.162;6.788;2023-03-21T15:50:51;12.40;90.60
55634;DHT22;41504;53.162;6.788;2023-03-21T15:53:18;12.50;90.30
55634;DHT22;41504;53.162;6.788;2023-03-21T15:55:51;12.40;90.50
55634;DHT22;41504;53.162;6.788;2023-03-21T15:58:20;12.40;90.60
55634;DHT22;41504;53.162;6.788;2023-03-21T16:00:54;12.40;90.30
55634;DHT22;41504;53.162;6.788;2023-03-21T16:03:26;12.40;89.90
55634;DHT22;41504;53.162;6.788;2023-03-21T16:09:03;12.30;89.40
55634;DHT22;41504;53.162;6.788;2023-03-21T16:11:56;12.30;89.40
55634;DHT22;41504;53.162;6.788;2023-03-21T16:14:24;12.30;89.40
55634;DHT22;41504;53.162;6.788;2023-03-21T16:16:53;12.40;89.00
55634;DHT22;41504;53.162;6.788;2023-03-21T16:19:19;12.30;89.50
55634;DHT22;41504;53.162;6.788;2023-03-21T16:21:45;12.30;89.80
55634;DHT22;41504;53.162;6.788;2023-03-21T16:24:11;12.30;89.90
55634;DHT22;41504;53.162;6.788;2023-03-21T16:26:43;12.30;89.40
55634;DHT22;41504;53.162;6.788;2023-03-21T16:29:13;12.30;89.90
55634;DHT22;41504;53.162;6.788;2023-03-21T16:31:38;12.30;90.00
55634;DHT22;41504;53.162;6.788;2023-03-21T16:34:04;12.30;90.10
55634;DHT22;41504;53.162;6.788;2023-03-21T16:36:34;12.20;90.30
55634;DHT22;41504;53.162;6.788;2023-03-21T16:39:21;12.20;90.40
55634;DHT22;41504;53.162;6.788;2023-03-21T16:41:47;12.20;90.30
55634;DHT22;41504;53.162;6.788;2023-03-21T16:44:15;12.20;90.20
55634;DHT22;41504;53.162;6.788;2023-03-21T16:46:40;12.20;90.20
55634;DHT22;41504;53.162;6.788;2023-03-21T16:49:19;12.20;90.20
55634;DHT22;41504;53.162;6.788;2023-03-21T16:51:46;12.20;90.10
55634;DHT22;41504;53.162;6.788;2023-03-21T16:54:17;12.10;90.10
55634;DHT22;41504;53.162;6.788;2023-03-21T16:56:51;12.20;90.00
55634;DHT22;41504;53.162;6.788;2023-03-21T16:59:38;11.90;90.00
55634;DHT22;41504;53.162;6.788;2023-03-21T17:02:15;12.10;90.20
55634;DHT22;41504;53.162;6.788;2023-03-21T17:04:41;12.00;90.50
55634;DHT22;41504;53.162;6.788;2023-03-21T17:07:13;11.90;90.60
55634;DHT22;41504;53.162;6.788;2023-03-21T17:09:41;11.90;90.80
55634;DHT22;41504;53.162;6.788;2023-03-21T17:12:16;11.80;91.00
55634;DHT22;41504;53.162;6.788;2023-03-21T17:14:43;11.70;91.40
55634;DHT22;41504;53.162;6.788;2023-03-21T17:17:12;11.60;91.70
55634;DHT22;41504;53.162;6.788;2023-03-21T17:19:38;11.50;91.80
55634;DHT22;41504;53.162;6.788;2023-03-21T17:22:04;11.40;92.10
55634;DHT22;41504;53.162;6.788;2023-03-21T17:24:31;11.40;92.30
55634;DHT22;41504;53.162;6.788;2023-03-21T17:26:59;11.30;92.40
55634;DHT22;41504;53.162;6.788;2023-03-21T17:29:25;11.30;92.60
55634;DHT22;41504;53.162;6.788;2023-03-21T17:31:51;11.30;92.70
55634;DHT22;41504;53.162;6.788;2023-03-21T17:34:17;11.20;92.80
55634;DHT22;41504;53.162;6.788;2023-03-21T17:36:44;11.20;92.90
55634;DHT22;41504;53.162;6.788;2023-03-21T17:39:19;11.20;93.00
55634;DHT22;41504;53.162;6.788;2023-03-21T17:41:45;11.20;93.10
55634;DHT22;41504;53.162;6.788;2023-03-21T17:44:11;11.20;93.10
55634;DHT22;41504;53.162;6.788;2023-03-21T17:46:37;11.20;93.20
55634;DHT22;41504;53.162;6.788;2023-03-21T17:49:03;11.20;93.30
55634;DHT22;41504;53.162;6.788;2023-03-21T17:51:29;11.10;93.30
55634;DHT22;41504;53.162;6.788;2023-03-21T17:53:58;11.10;93.40
55634;DHT22;41504;53.162;6.788;2023-03-21T17:56:26;11.10;93.40